Nearby METAR Reports

 

KGSP - Greer/Spartansbg, South Carolina, USA
Distance from station: E 4mi, 6km
Updated: Wed, 19-Feb-2020 7:30am EST
Overcast
Overcast
 Wind from N
Wind: N 8 mph , 13 km/h
Temperature: 52°F , 11°C
Dew Point: 45°F , 7°C
Humidity: 77%
Barometer: 30.19 inHg , 1022.4 hPa
Clouds: Overcast
Visibility: 10 miles , 16 km
Cloud details: Overcast 3100 ft
2020/02/19 12:30 KGSP 191230Z 01007KT 10SM OVC031 11/07 A3019 RMK AO2 T01060072
KGMU - Greenville, South Carolina, USA
Distance from station: SW 5mi, 8km
Updated: Wed, 19-Feb-2020 6:53am EST
Overcast
Overcast
 Wind from calm
Wind: Calm
Temperature: 54°F , 12°C
Dew Point: 48°F , 9°C
Humidity: 82%
Barometer: 30.18 inHg , 1022 hPa
Clouds: Overcast
Visibility: 10 miles , 16 km
Cloud details: Few Clouds 1200 ft
Overcast 2500 ft
2020/02/19 11:53 KGMU 191153Z 00000KT 10SM FEW012 OVC025 12/09 A3018 RMK AO2 SLP218 60005 70046 T01220089 10133 20122 53025
 
KGYH - Greenville, South Carolina, USA
Distance from station: SSW 11mi, 18km
Updated: Wed, 19-Feb-2020 6:47am EST
Overcast
Overcast
 Wind from NNE
Wind: NNE 6 mph , 9 km/h
Temperature: 54°F , 12°C
Dew Point: 50°F , 10°C
Humidity: 88%
Barometer: 30.16 inHg , 1021.3 hPa
Clouds: Overcast
Visibility: 10 miles , 16 km
Cloud details: Overcast 2100 ft
2020/02/19 11:47 KGYH 191147Z 02005KT 10SM OVC021 12/10 A3016
KSPA - Spartanburg, South Carolina, USA
Distance from station: E 20mi, 32km
Updated: Wed, 19-Feb-2020 7:35am EST
Overcast
Overcast
 Wind from NNE
Wind: NNE 8 mph , 13 km/h
Temperature: 52°F , 11°C
Dew Point: 45°F , 7°C
Humidity: 77%
Barometer: 30.19 inHg , 1022.4 hPa
Clouds: Overcast
Visibility: 10 miles , 16 km
Cloud details: Overcast 3300 ft
2020/02/19 12:35 KSPA 191235Z AUTO 02007KT 10SM OVC033 11/07 A3019 RMK AO2
 
KLQK - Pickens, South Carolina, USA
Distance from station: WSW 24mi, 39km
Updated: Wed, 19-Feb-2020 7:35am EST
Overcast
Overcast
 Wind from calm
Wind: Calm
Temperature: 52°F , 11°C
Dew Point: 52°F , 11°C
Humidity: 100%
Barometer: 30.16 inHg , 1021.3 hPa
Clouds: Overcast
Visibility: 10 miles , 16 km
Cloud details: Overcast 1600 ft
2020/02/19 12:35 KLQK 191235Z AUTO 00000KT 10SM OVC016 11/11 A3016 RMK AO2 T01110111
KLUX - Laurens, South Carolina, USA
Distance from station: SE 33mi, 54km
Updated: Wed, 19-Feb-2020 7:15am EST
Drizzle, Clear
Drizzle, Clear
 Wind from N
Wind: N 8 mph , 13 km/h
Temperature: 54°F , 12°C
Dew Point: 54°F , 12°C
Humidity: 100%
Barometer: 30.18 inHg , 1022 hPa
Summary: Drizzle
Clouds: Clear
Visibility: 2 1/2 miles , 4 km
2020/02/19 12:15 KLUX 191215Z AUTO 01007KT 2 1/2SM DZ CLR 12/12 A3018 RMK AO2 P0001
 
KAND - Anderson, South Carolina, USA
Distance from station: SW 37mi, 59km
Updated: Wed, 19-Feb-2020 6:56am EST
Mist, Overcast
Mist, Overcast
 Wind from NE
Wind: NE 5 mph , 7 km/h
Temperature: 55°F , 13°C
Dew Point: 54°F , 12°C
Humidity: 94%
Barometer: 30.16 inHg , 1021.3 hPa
Summary: Mist
Clouds: Overcast
Visibility: 3/4 mile , 1.2 km
Cloud details: Overcast 200 ft
2020/02/19 11:56 KAND 191156Z AUTO 05004KT 3/4SM BR VV002 13/12 A3016 RMK AO2 RAB18E32 SLP210 P0000 60006 70074 T01280117 10128 20117 51018
KCEU - Clemson, South Carolina, USA
Distance from station: WSW 37mi, 60km
Updated: Wed, 19-Feb-2020 7:30am EST
Overcast
Overcast
 Wind from E
Wind: E 7 mph , 11 km/h
Temperature: 54°F , 12°C
Dew Point: 52°F , 11°C
Humidity: 94%
Barometer: 30.18 inHg , 1022 hPa
Clouds: Overcast
Visibility: 7 miles , 11 km
Cloud details: Partly cloudy 200 ft
Overcast 1500 ft
2020/02/19 12:30 KCEU 191230Z AUTO 10006KT 7SM SCT002 OVC015 12/11 A3018 RMK AO2 T01170111
 
KAVL - Asheville, North Carolina, USA
Distance from station: NNW 40mi, 64km
Updated: Wed, 19-Feb-2020 6:54am EST
Mostly cloudy
Mostly cloudy
 Wind from N
Wind: N 12 mph , 19 km/h
Temperature: 45°F , 7°C
Wind Chill: 39°F , 4°C
Dew Point: 39°F , 4°C
Humidity: 81%
Barometer: 30.22 inHg , 1023.4 hPa
Clouds: Mostly cloudy
Visibility: 10 miles , 16 km
Cloud details: Few Clouds 1400 ft
Mostly cloudy 4300 ft
2020/02/19 11:54 KAVL 191154Z 35010KT 10SM FEW014 BKN043 07/04 A3022 RMK AO2 SLP228 60000 70028 T00720039 10111 20072 53016
KFQD - Rutherfordton, North Carolina, USA
Distance from station: NNE 41mi, 66km
Updated: Tue, 18-Feb-2020 6:15pm EST
NOT Current
Light rain, Overcast
Light rain, Overcast
 Wind from SSE
Wind: SSE 3 mph , 6 km/h
Temperature: 52°F , 11°C
Dew Point: 52°F , 11°C
Humidity: 100%
Barometer: 30.09 inHg , 1019 hPa
Summary: Light rain
Clouds: Overcast
Visibility: 2 1/2 miles , 4 km
Cloud details: Overcast 300 ft
2020/02/18 23:15 KFQD 182315Z AUTO 16003KT 2 1/2SM -RA OVC003 11/11 A3009 RMK AO2 P0002
 
KGRD - Greenwood, South Carolina, USA
Distance from station: S 45mi, 73km
Updated: Wed, 19-Feb-2020 7:24am EST
Light rain, Mist, Overcast
Light rain, Mist, Overcast
 Wind from N
Wind: N 6 mph , 9 km/h
Temperature: 57°F , 14°C
Dew Point: 57°F , 14°C
Humidity: 100%
Barometer: 30.19 inHg , 1022.4 hPa
Summary: Light rain, Mist
Clouds: Overcast
Visibility: 2 1/2 miles , 4 km
Cloud details: Overcast 300 ft
2020/02/19 12:24 KGRD 191224Z AUTO 35005KT 2 1/2SM -RA BR OVC003 14/14 A3019 RMK AO2 P0001 T01390139
KEHO - Shelby Muni, North Carolina, USA
Distance from station: ENE 46mi, 74km
Updated: Wed, 19-Feb-2020 7:15am EST
Overcast
Overcast
 Wind from NE
Wind: NE 6 mph , 9 km/h
Temperature: 52°F , 11°C
Dew Point: 50°F , 10°C
Humidity: 94%
Barometer: 30.20 inHg , 1022.7 hPa
Clouds: Overcast
Visibility: 10 miles , 16 km
Cloud details: Partly cloudy 4500 ft
Overcast 5500 ft
2020/02/19 12:15 KEHO 191215Z AUTO 04005KT 10SM SCT045 OVC055 11/10 A3020 RMK AO2 T01080101